createdAt,value
2019-02-25T00:01:34.674Z,12.00
2019-02-25T00:04:04.117Z,11.50
2019-02-25T00:06:35.340Z,11.90
2019-02-25T00:09:06.092Z,11.40
2019-02-25T00:11:35.521Z,11.87
2019-02-25T00:14:04.778Z,12.47
2019-02-25T00:16:33.996Z,11.67
2019-02-25T00:19:03.254Z,11.43
2019-02-25T00:21:32.816Z,12.20
2019-02-25T00:24:02.095Z,11.77
2019-02-25T00:26:31.319Z,11.07
2019-02-25T00:29:00.582Z,11.60
2019-02-25T00:31:29.820Z,11.13
2019-02-25T00:34:03.138Z,11.17
2019-02-25T00:36:32.393Z,11.53
2019-02-25T00:39:02.057Z,10.53
2019-02-25T00:41:31.290Z,10.00
2019-02-25T00:44:00.561Z,10.50
2019-02-25T00:46:30.049Z,10.43
2019-02-25T00:48:59.625Z,10.57
2019-02-25T00:51:28.889Z,10.47
2019-02-25T00:54:00.614Z,10.10
2019-02-25T00:56:33.409Z,10.07
2019-02-25T00:59:02.649Z,10.43
2019-02-25T01:01:34.210Z,11.40
2019-02-25T01:04:03.455Z,10.53
2019-02-25T01:06:34.934Z,10.87
2019-02-25T01:09:05.833Z,10.60
2019-02-25T01:11:35.409Z,10.83
2019-02-25T01:14:05.468Z,11.10
2019-02-25T01:16:34.721Z,11.27
2019-02-25T01:19:03.957Z,11.43
2019-02-25T01:21:34.544Z,10.23
2019-02-25T01:24:06.157Z,10.80
2019-02-25T01:26:35.720Z,10.50
2019-02-25T01:29:06.066Z,10.63
2019-02-25T01:31:35.715Z,10.33
2019-02-25T01:34:07.474Z,10.83
2019-02-25T01:36:36.729Z,10.43
2019-02-25T01:39:07.987Z,10.30
2019-02-25T01:41:39.397Z,10.60
2019-02-25T01:44:09.207Z,10.67
2019-02-25T01:46:38.815Z,10.50
2019-02-25T01:49:08.065Z,10.93
2019-02-25T01:51:37.324Z,11.00
2019-02-25T01:54:06.561Z,10.80
2019-02-25T01:56:35.817Z,10.53
2019-02-25T01:59:05.307Z,11.23
2019-02-25T02:01:34.588Z,11.30
2019-02-25T02:04:04.267Z,11.43
2019-02-25T02:06:33.795Z,11.77
2019-02-25T02:09:04.522Z,10.23
2019-02-25T02:11:37.189Z,10.83
2019-02-25T02:14:07.563Z,10.77
2019-02-25T02:16:36.817Z,10.07
2019-02-25T02:19:06.045Z,9.50
2019-02-25T02:21:37.046Z,10.50
2019-02-25T02:24:06.324Z,11.07
2019-02-25T02:26:35.574Z,10.60
2019-02-25T02:29:07.329Z,10.13
2019-02-25T02:31:36.597Z,9.70
2019-02-25T02:34:05.840Z,10.03
2019-02-25T02:36:36.255Z,10.97
2019-02-25T02:39:08.485Z,9.87
2019-02-25T02:42:12.856Z,9.27
2019-02-25T02:44:43.432Z,9.90
2019-02-25T02:48:05.987Z,9.60
2019-02-25T02:50:36.235Z,9.57
2019-02-25T02:53:05.481Z,10.60
2019-02-25T02:55:36.294Z,10.27
2019-02-25T02:58:05.573Z,11.87
2019-02-25T03:00:35.998Z,11.37
2019-02-25T03:03:05.380Z,11.93
2019-02-25T03:05:34.615Z,11.67
2019-02-25T03:08:03.996Z,11.10
2019-02-25T03:10:33.051Z,10.87
2019-02-25T03:13:03.172Z,11.53
2019-02-25T03:15:33.303Z,9.77
2019-02-25T03:18:02.559Z,10.50
2019-02-25T03:20:31.788Z,9.37
2019-02-25T03:23:01.086Z,8.57
2019-02-25T03:25:31.664Z,8.23
2019-02-25T03:28:00.919Z,7.93
2019-02-25T03:30:30.568Z,8.43
2019-02-25T03:33:01.014Z,7.30
2019-02-25T03:35:30.250Z,7.80
2019-02-25T03:37:59.554Z,7.70
2019-02-25T03:40:30.250Z,7.13
2019-02-25T03:43:00.627Z,6.93
2019-02-25T03:45:30.211Z,6.97
2019-02-25T03:47:59.479Z,6.80
2019-02-25T03:50:28.711Z,7.17
2019-02-25T03:52:57.960Z,7.10
2019-02-25T03:55:27.514Z,7.27
2019-02-25T03:57:56.821Z,7.03
2019-02-25T04:00:26.190Z,6.57
2019-02-25T04:02:56.451Z,7.10
2019-02-25T04:05:27.996Z,7.23
2019-02-25T04:07:57.669Z,10.50
2019-02-25T04:10:26.938Z,9.83
2019-02-25T04:12:56.194Z,8.77
2019-02-25T04:15:30.700Z,7.80
2019-02-25T04:17:59.987Z,7.43
2019-02-25T04:20:29.218Z,8.90
2019-02-25T04:22:58.472Z,8.80
2019-02-25T04:25:29.626Z,8.67
2019-02-25T04:27:58.876Z,8.30
2019-02-25T04:30:29.001Z,8.13
2019-02-25T04:32:58.275Z,8.00
2019-02-25T04:35:28.736Z,7.03
2019-02-25T04:37:59.562Z,7.60
2019-02-25T04:40:28.790Z,7.43
2019-02-25T04:42:58.069Z,7.73
2019-02-25T04:45:27.366Z,9.37
2019-02-25T04:47:57.110Z,10.57
2019-02-25T04:50:26.380Z,12.80
2019-02-25T04:52:55.932Z,12.57
2019-02-25T04:55:25.555Z,12.13
2019-02-25T04:57:54.797Z,11.63
2019-02-25T05:00:24.347Z,11.37
2019-02-25T05:02:53.605Z,10.83
2019-02-25T05:05:22.895Z,12.13
2019-02-25T05:07:52.151Z,12.53
2019-02-25T05:10:21.858Z,12.87
2019-02-25T05:12:56.390Z,13.10
2019-02-25T05:15:26.469Z,12.63
2019-02-25T05:17:59.125Z,13.10
2019-02-25T05:20:30.886Z,12.83
2019-02-25T05:23:00.414Z,12.67
2019-02-25T05:25:32.396Z,12.03
2019-02-25T05:28:01.790Z,12.13
2019-02-25T05:30:31.313Z,12.13
2019-02-25T05:33:00.544Z,12.50
2019-02-25T05:35:31.360Z,13.03
2019-02-25T05:38:00.860Z,13.80
2019-02-25T05:40:31.490Z,13.10
2019-02-25T05:43:03.809Z,13.40
2019-02-25T05:45:34.113Z,12.80
2019-02-25T05:48:03.355Z,12.40
2019-02-25T05:50:32.918Z,13.37
2019-02-25T05:53:04.533Z,12.37
2019-02-25T05:55:34.143Z,13.50
2019-02-25T05:58:03.387Z,12.80
2019-02-25T06:00:33.034Z,12.37
2019-02-25T06:03:02.290Z,12.10
2019-02-25T06:05:31.818Z,11.53
2019-02-25T06:08:02.961Z,11.97
2019-02-25T06:10:32.220Z,12.07
2019-02-25T06:13:01.450Z,11.63
2019-02-25T06:15:30.697Z,11.73
2019-02-25T06:17:59.945Z,11.57
2019-02-25T06:20:31.718Z,11.60
2019-02-25T06:23:00.947Z,12.60
2019-02-25T06:25:30.198Z,11.90
2019-02-25T06:27:59.700Z,14.03
2019-02-25T06:30:29.019Z,14.30
2019-02-25T06:33:00.458Z,13.60
2019-02-25T06:35:32.022Z,13.03
2019-02-25T06:38:01.082Z,12.73
2019-02-25T06:40:30.784Z,12.93
2019-02-25T06:43:00.396Z,11.83
2019-02-25T06:45:31.172Z,11.70
2019-02-25T06:48:00.574Z,11.93
2019-02-25T06:50:29.818Z,12.30
2019-02-25T06:52:59.045Z,12.47
2019-02-25T06:55:29.105Z,11.73
2019-02-25T06:57:58.346Z,12.53
2019-02-25T07:00:27.608Z,13.43
2019-02-25T07:02:56.853Z,14.60
2019-02-25T07:05:39.589Z,13.60
2019-02-25T07:08:15.012Z,12.30
2019-02-25T07:11:15.388Z,11.37
2019-02-25T07:13:59.155Z,9.70
2019-02-25T07:16:47.632Z,9.53
2019-02-25T07:19:38.577Z,10.17
2019-02-25T07:22:41.916Z,10.43
2019-02-25T07:25:33.028Z,9.93
2019-02-25T07:28:21.628Z,9.60
2019-02-25T07:31:12.294Z,9.97
2019-02-25T07:33:57.645Z,10.10
2019-02-25T07:36:46.442Z,10.57
2019-02-25T07:39:38.673Z,11.30
2019-02-25T07:42:16.669Z,10.23
2019-02-25T07:45:00.894Z,9.67
2019-02-25T07:48:01.269Z,10.03
2019-02-25T07:50:48.699Z,11.87
2019-02-25T07:53:54.974Z,10.77
2019-02-25T07:56:41.925Z,10.37
2019-02-25T07:59:24.435Z,10.23
2019-02-25T08:02:00.737Z,10.70
2019-02-25T08:04:41.790Z,10.40
2019-02-25T08:07:19.050Z,10.63
2019-02-25T08:10:10.130Z,11.73
2019-02-25T08:12:51.801Z,10.50
2019-02-25T08:15:27.257Z,10.37
2019-02-25T08:18:07.486Z,10.97
2019-02-25T08:20:55.739Z,10.93
2019-02-25T08:24:02.933Z,11.37
2019-02-25T08:26:45.143Z,10.67
2019-02-25T08:29:35.819Z,9.97
2019-02-25T08:32:28.140Z,10.30
2019-02-25T08:35:06.988Z,10.20
2019-02-25T08:38:03.458Z,10.27
2019-02-25T08:40:52.256Z,10.70
2019-02-25T08:43:43.369Z,9.50
2019-02-25T08:46:18.560Z,9.83
2019-02-25T08:48:52.944Z,9.50
2019-02-25T08:51:23.021Z,9.40
2019-02-25T08:53:53.573Z,10.03
2019-02-25T08:56:24.192Z,9.77
2019-02-25T08:58:53.444Z,9.90
2019-02-25T09:01:22.697Z,10.13
2019-02-25T09:03:51.958Z,10.00
2019-02-25T09:06:21.935Z,10.10
2019-02-25T09:08:51.214Z,11.12
2019-02-25T09:11:22.753Z,10.57
2019-02-25T09:13:52.024Z,9.20
2019-02-25T09:16:21.348Z,9.57
2019-02-25T09:18:51.096Z,10.40
2019-02-25T09:21:21.499Z,9.85
2019-02-25T09:23:50.794Z,9.53
2019-02-25T09:26:20.062Z,10.55
2019-02-25T09:28:49.295Z,10.15
2019-02-25T09:31:18.562Z,10.38
2019-02-25T09:33:49.047Z,10.13
2019-02-25T09:36:19.493Z,9.85
2019-02-25T09:38:48.828Z,10.65
2019-02-25T09:41:29.953Z,10.30
2019-02-25T09:43:56.545Z,10.30
2019-02-25T09:46:26.621Z,10.85
2019-02-25T09:48:57.158Z,11.55
2019-02-25T09:51:27.443Z,10.82
2019-02-25T09:53:56.970Z,10.88
2019-02-25T09:56:26.232Z,10.85
2019-02-25T09:58:55.460Z,11.73
2019-02-25T10:01:24.738Z,11.20
2019-02-25T10:03:53.974Z,10.85
2019-02-25T10:06:23.227Z,11.43
2019-02-25T10:08:52.469Z,11.80
2019-02-25T10:11:21.723Z,11.10
2019-02-25T10:13:51.908Z,11.25
2019-02-25T10:16:22.694Z,11.73
2019-02-25T10:18:51.927Z,11.35
2019-02-25T10:21:23.863Z,11.80
2019-02-25T10:23:53.105Z,11.40
2019-02-25T10:26:24.158Z,11.87
2019-02-25T10:28:53.392Z,11.97
2019-02-25T10:31:23.037Z,11.97
2019-02-25T10:33:52.273Z,12.33
2019-02-25T10:36:21.922Z,11.63
2019-02-25T10:38:52.384Z,12.33
2019-02-25T10:41:23.390Z,11.83
2019-02-25T10:43:53.386Z,12.00
2019-02-25T10:46:22.649Z,11.57
2019-02-25T10:48:54.324Z,11.83
2019-02-25T10:51:25.159Z,12.03
2019-02-25T10:53:54.387Z,22.67
2019-02-25T10:56:33.608Z,11.57
2019-02-25T10:59:04.524Z,10.83
2019-02-25T11:01:34.615Z,10.93
2019-02-25T11:04:04.117Z,13.33
2019-02-25T11:06:37.571Z,10.67
2019-02-25T11:09:44.414Z,10.80
2019-02-25T11:12:14.825Z,10.83
2019-02-25T11:14:45.379Z,10.13
2019-02-25T11:17:16.140Z,9.90
2019-02-25T11:19:46.522Z,9.90
2019-02-25T11:22:16.338Z,9.77
2019-02-25T11:24:47.424Z,9.70
2019-02-25T11:27:17.204Z,9.73
2019-02-25T11:29:48.328Z,9.63
2019-02-25T11:32:19.897Z,9.40
2019-02-25T11:34:48.957Z,10.17
2019-02-25T11:37:19.730Z,10.13
2019-02-25T11:39:50.055Z,9.57
2019-02-25T11:42:20.750Z,9.23
2019-02-25T11:44:51.779Z,9.37
2019-02-25T11:47:23.900Z,10.10
2019-02-25T11:49:53.129Z,9.88
2019-02-25T11:52:22.415Z,9.93
2019-02-25T11:54:51.744Z,10.65
2019-02-25T11:57:23.157Z,9.67
2019-02-25T11:59:52.396Z,10.20
2019-02-25T12:02:25.831Z,9.63
2019-02-25T12:04:54.330Z,10.13
2019-02-25T12:07:24.806Z,10.23
2019-02-25T12:09:55.198Z,10.23
2019-02-25T12:12:24.753Z,9.27
2019-02-25T12:14:55.101Z,9.60
2019-02-25T12:17:26.508Z,10.27
2019-02-25T12:19:58.092Z,9.77
2019-02-25T12:22:27.353Z,10.00
2019-02-25T12:24:58.868Z,10.53
2019-02-25T12:27:28.114Z,10.03
2019-02-25T12:29:58.236Z,10.20
2019-02-25T12:32:29.159Z,9.93
2019-02-25T12:34:58.422Z,10.23
2019-02-25T12:37:27.470Z,11.00
2019-02-25T12:39:56.795Z,10.57
2019-02-25T12:42:26.932Z,10.97
2019-02-25T12:44:57.069Z,10.73
2019-02-25T12:47:26.609Z,11.87
2019-02-25T12:49:55.874Z,11.37
2019-02-25T12:52:27.865Z,12.30
2019-02-25T12:54:57.609Z,10.03
2019-02-25T12:57:27.119Z,10.10
2019-02-25T12:59:56.672Z,10.80
2019-02-25T13:02:27.714Z,10.50
2019-02-25T13:04:57.152Z,10.43
2019-02-25T13:07:26.435Z,10.60
2019-02-25T13:09:57.045Z,10.30
2019-02-25T13:12:26.280Z,10.10
2019-02-25T13:14:56.640Z,9.20
2019-02-25T13:17:26.160Z,9.63
2019-02-25T13:19:55.674Z,8.30
2019-02-25T13:22:24.891Z,8.90
2019-02-25T13:24:54.503Z,8.50
2019-02-25T13:27:23.719Z,8.60
2019-02-25T13:29:53.272Z,9.07
2019-02-25T13:32:23.791Z,9.00
2019-02-25T13:34:53.326Z,9.10
2019-02-25T13:37:23.293Z,8.97
2019-02-25T13:39:55.096Z,8.57
2019-02-25T13:42:24.312Z,8.13
2019-02-25T13:44:53.811Z,8.23
2019-02-25T13:47:23.030Z,7.77
2019-02-25T13:49:52.711Z,7.73
2019-02-25T13:52:24.146Z,8.17
2019-02-25T13:54:55.191Z,7.60
2019-02-25T13:57:24.425Z,7.53
2019-02-25T13:59:53.703Z,7.40
2019-02-25T14:02:25.599Z,7.50
2019-02-25T14:04:55.569Z,7.53
2019-02-25T14:07:24.891Z,7.63
2019-02-25T14:09:54.126Z,6.97
2019-02-25T14:12:23.364Z,6.97
2019-02-25T14:14:53.677Z,6.97
2019-02-25T14:17:22.894Z,7.37
2019-02-25T14:19:52.515Z,7.23
2019-02-25T14:22:22.619Z,6.70
2019-02-25T14:24:55.414Z,7.70
2019-02-25T14:27:24.850Z,7.10
2019-02-25T14:29:54.408Z,7.13
2019-02-25T14:32:23.634Z,6.90
2019-02-25T14:34:55.328Z,7.03
2019-02-25T14:37:25.343Z,7.03
2019-02-25T14:39:56.353Z,7.67
2019-02-25T14:42:26.473Z,7.07
2019-02-25T14:44:58.557Z,7.13
2019-02-25T14:47:35.034Z,7.10
2019-02-25T14:50:00.790Z,6.53
2019-02-25T14:52:31.851Z,7.43
2019-02-25T14:55:03.763Z,7.10
2019-02-25T14:57:33.350Z,7.10
2019-02-25T15:00:04.221Z,7.13
2019-02-25T15:02:36.324Z,7.30
2019-02-25T15:05:05.973Z,7.30
2019-02-25T15:07:37.609Z,7.53
2019-02-25T15:10:11.126Z,7.20
2019-02-25T15:12:40.871Z,7.80
2019-02-25T15:15:11.599Z,8.00
2019-02-25T15:17:41.974Z,7.53
2019-02-25T15:20:16.397Z,7.40
2019-02-25T15:22:44.109Z,8.10
2019-02-25T15:25:13.747Z,7.43
2019-02-25T15:27:45.063Z,7.43
2019-02-25T15:30:20.612Z,7.60
2019-02-25T15:32:55.632Z,7.50
2019-02-25T15:35:20.851Z,7.43
2019-02-25T15:37:51.234Z,7.50
2019-02-25T15:40:22.783Z,7.50
2019-02-25T15:43:04.909Z,7.90
2019-02-25T15:45:37.701Z,7.17
2019-02-25T15:48:09.768Z,7.60
2019-02-25T15:50:44.052Z,7.63
2019-02-25T15:53:16.025Z,7.40
2019-02-25T15:55:44.153Z,7.63
2019-02-25T15:58:13.410Z,7.77
2019-02-25T16:00:42.933Z,7.80
2019-02-25T16:03:13.769Z,7.90
2019-02-25T16:05:43.867Z,8.23
2019-02-25T16:08:16.151Z,7.57
2019-02-25T16:10:44.619Z,8.10
2019-02-25T16:13:14.433Z,7.53
2019-02-25T16:15:43.952Z,8.73
2019-02-25T16:18:14.097Z,8.37
2019-02-25T16:20:46.168Z,8.93
2019-02-25T16:23:16.248Z,8.30
2019-02-25T16:25:46.549Z,8.27
2019-02-25T16:28:17.497Z,8.57
2019-02-25T16:30:48.687Z,8.20
2019-02-25T16:33:19.194Z,8.10
2019-02-25T16:35:49.515Z,9.10
2019-02-25T16:38:21.047Z,9.33
2019-02-25T16:40:50.267Z,8.97
2019-02-25T16:43:19.755Z,9.23
2019-02-25T16:45:49.002Z,9.27
2019-02-25T16:48:23.549Z,9.87
2019-02-25T16:50:50.312Z,11.40
2019-02-25T16:53:20.307Z,13.90
2019-02-25T16:55:51.408Z,13.87
2019-02-25T16:58:20.647Z,12.40
2019-02-25T17:00:49.932Z,11.77
2019-02-25T17:03:19.586Z,13.30
2019-02-25T17:05:50.484Z,15.07
2019-02-25T17:08:21.760Z,17.37
2019-02-25T17:10:51.925Z,17.50
2019-02-25T17:13:22.071Z,17.10
2019-02-25T17:15:53.037Z,17.30
2019-02-25T17:18:24.063Z,14.67
2019-02-25T17:20:53.329Z,15.13
2019-02-25T17:23:24.711Z,13.63
2019-02-25T17:25:53.560Z,13.70
2019-02-25T17:28:24.598Z,13.40
2019-02-25T17:30:53.793Z,13.83
2019-02-25T17:33:26.207Z,12.67
2019-02-25T17:35:55.823Z,13.60
2019-02-25T17:38:26.551Z,14.17
2019-02-25T17:40:59.211Z,17.57
2019-02-25T17:43:32.560Z,17.30
2019-02-25T17:46:05.120Z,17.43
2019-02-25T17:48:35.051Z,18.00
2019-02-25T17:51:04.500Z,18.00
2019-02-25T17:53:33.823Z,21.50
2019-02-25T17:56:03.094Z,20.77
2019-02-25T17:58:40.714Z,18.43
2019-02-25T18:01:12.392Z,15.93
2019-02-25T18:03:44.378Z,14.77
2019-02-25T18:06:14.595Z,14.13
2019-02-25T18:08:43.964Z,13.60
2019-02-25T18:11:14.030Z,12.27
2019-02-25T18:13:46.758Z,12.57
2019-02-25T18:16:17.267Z,12.80
2019-02-25T18:18:50.721Z,12.23
2019-02-25T18:21:19.104Z,14.33
2019-02-25T18:23:49.382Z,14.93
2019-02-25T18:26:19.281Z,15.43
2019-02-25T18:28:52.641Z,13.23
2019-02-25T18:31:22.886Z,13.37
2019-02-25T18:33:54.415Z,11.57
2019-02-25T18:36:26.375Z,11.10
2019-02-25T18:38:56.533Z,10.53
2019-02-25T18:41:27.415Z,10.90
2019-02-25T18:43:56.724Z,11.00
2019-02-25T18:46:27.269Z,14.50
2019-02-25T18:48:57.726Z,16.43
2019-02-25T18:51:30.121Z,14.27
2019-02-25T18:54:01.318Z,12.73
2019-02-25T18:56:33.652Z,13.67
2019-02-25T18:59:08.706Z,13.63
2019-02-25T19:01:38.147Z,14.00
2019-02-25T19:04:07.680Z,14.03
2019-02-25T19:06:37.592Z,14.03
2019-02-25T19:09:14.215Z,13.63
2019-02-25T19:11:45.467Z,13.60
2019-02-25T19:14:17.940Z,13.53
2019-02-25T19:16:47.529Z,14.27
2019-02-25T19:19:17.475Z,14.10
2019-02-25T19:21:48.241Z,14.17
2019-02-25T19:24:19.977Z,15.00
2019-02-25T19:26:50.602Z,15.90
2019-02-25T19:29:21.684Z,15.00
2019-02-25T19:31:51.111Z,15.20
2019-02-25T19:34:21.265Z,14.67
2019-02-25T19:36:50.587Z,14.50
2019-02-25T19:39:21.520Z,14.17
2019-02-25T19:41:51.618Z,13.33
2019-02-25T19:44:41.132Z,13.77
2019-02-25T19:47:14.353Z,12.80
2019-02-25T19:49:45.921Z,13.93
2019-02-25T19:52:16.776Z,15.93
2019-02-25T19:54:50.659Z,16.83
2019-02-25T19:57:26.163Z,17.27
2019-02-25T19:59:57.968Z,15.00
2019-02-25T20:02:29.647Z,15.90
2019-02-25T20:04:59.557Z,17.27
2019-02-25T20:07:30.911Z,17.77
2019-02-25T20:09:59.745Z,17.27
2019-02-25T20:12:36.608Z,16.70
2019-02-25T20:15:09.422Z,16.53
2019-02-25T20:17:39.345Z,15.70
2019-02-25T20:20:11.003Z,16.70
2019-02-25T20:22:40.848Z,26.27
2019-02-25T20:25:12.531Z,18.27
2019-02-25T20:27:44.346Z,21.00
2019-02-25T20:30:15.772Z,18.70
2019-02-25T20:32:44.990Z,18.73
2019-02-25T20:35:15.722Z,16.67
2019-02-25T20:37:48.894Z,16.23
2019-02-25T20:40:24.156Z,14.53
2019-02-25T20:42:54.142Z,15.73
2019-02-25T20:45:26.074Z,14.73
2019-02-25T20:47:57.181Z,15.47
2019-02-25T20:50:28.043Z,15.77
2019-02-25T20:53:09.176Z,15.47
2019-02-25T20:55:38.913Z,15.83
2019-02-25T20:58:08.315Z,14.77
2019-02-25T21:00:42.020Z,17.93
2019-02-25T21:03:13.991Z,16.33
2019-02-25T21:05:42.786Z,14.87
2019-02-25T21:08:14.151Z,16.03
2019-02-25T21:10:45.407Z,16.60
2019-02-25T21:13:14.648Z,17.60
2019-02-25T21:15:45.397Z,18.27
2019-02-25T21:18:14.815Z,19.20
2019-02-25T21:20:45.239Z,17.53
2019-02-25T21:23:17.295Z,12.70
2019-02-25T21:25:53.420Z,11.43
2019-02-25T21:28:25.131Z,11.03
2019-02-25T21:30:52.916Z,11.27
2019-02-25T21:33:24.931Z,10.67
2019-02-25T21:35:53.102Z,10.47
2019-02-25T21:38:26.751Z,10.40
2019-02-25T21:40:58.987Z,10.63
2019-02-25T21:43:29.076Z,11.87
2019-02-25T21:46:01.751Z,13.33
2019-02-25T21:48:37.616Z,12.73
2019-02-25T21:51:08.002Z,13.40
2019-02-25T21:53:38.192Z,21.83
2019-02-25T21:56:11.129Z,16.43
2019-02-25T21:58:42.928Z,18.60
2019-02-25T22:01:12.003Z,13.07
2019-02-25T22:03:45.933Z,13.83
2019-02-25T22:06:14.152Z,12.60
2019-02-25T22:08:43.403Z,14.47
2019-02-25T22:11:17.227Z,18.60
2019-02-25T22:13:47.035Z,13.90
2019-02-25T22:16:17.374Z,12.40
2019-02-25T22:18:50.373Z,12.30
2019-02-25T22:21:21.334Z,12.77
2019-02-25T22:23:54.556Z,15.33
2019-02-25T22:26:27.187Z,13.13
2019-02-25T22:28:55.403Z,13.53
2019-02-25T22:31:24.851Z,14.23
2019-02-25T22:33:54.485Z,14.57
2019-02-25T22:36:24.425Z,13.63
2019-02-25T22:38:57.213Z,12.37
2019-02-25T22:41:27.182Z,12.67
2019-02-25T22:43:56.897Z,12.50
2019-02-25T22:46:29.934Z,12.40
2019-02-25T22:48:59.289Z,13.07
2019-02-25T22:51:30.647Z,12.53
2019-02-25T22:54:00.918Z,12.97
2019-02-25T22:56:31.094Z,13.10
2019-02-25T22:59:03.298Z,13.87
2019-02-25T23:01:36.881Z,13.83
2019-02-25T23:04:05.966Z,12.73
2019-02-25T23:06:39.710Z,13.70
2019-02-25T23:09:14.286Z,12.67
2019-02-25T23:11:46.015Z,12.10
2019-02-25T23:14:18.026Z,12.40
2019-02-25T23:16:49.620Z,11.77
2019-02-25T23:19:20.329Z,12.97
2019-02-25T23:21:49.817Z,13.47
2019-02-25T23:24:21.766Z,12.47
2019-02-25T23:26:53.058Z,11.97
2019-02-25T23:29:26.657Z,12.10
2019-02-25T23:31:53.791Z,12.43
2019-02-25T23:34:23.022Z,13.27
2019-02-25T23:36:56.095Z,11.57
2019-02-25T23:39:27.333Z,11.20
2019-02-25T23:42:00.676Z,12.13
2019-02-25T23:44:29.978Z,11.63
2019-02-25T23:47:02.110Z,10.90
2019-02-25T23:49:31.679Z,10.70
2019-02-25T23:52:00.886Z,10.83
2019-02-25T23:54:33.368Z,11.03
2019-02-25T23:57:02.967Z,11.27
2019-02-25T23:59:33.056Z,12.03
